Time;durP1;ratioP1;P1;durP2;ratioP2;P2;SDS_P1;SDS_P2;PMS_P1;PMS_P2;Temp;Humidity;BMP_temperature;BMP_pressure;BME280_temperature;BME280_humidity;BME280_pressure;Samples;Min_cycle;Max_cycle;Signal;HPM_P1;HPM_P2
2021/10/23 00:00:54;;;;;;;6.90;2.17;;;10.10;99.90;;;;;;4992421;28;20242;-62
2021/10/23 00:03:21;;;;;;;6.75;3.00;;;10.10;99.90;;;;;;5010536;28;20589;-63
2021/10/23 00:05:49;;;;;;;6.78;2.25;;;10.10;99.90;;;;;;4999524;28;20227;-62
2021/10/23 00:08:15;;;;;;;5.03;2.40;;;10.10;99.90;;;;;;5004217;28;20234;-63
2021/10/23 00:10:44;;;;;;;4.10;2.17;;;10.10;99.90;;;;;;5000712;28;20232;-63
2021/10/23 00:13:11;;;;;;;6.68;2.47;;;10.10;99.90;;;;;;5003538;28;20229;-63
2021/10/23 00:15:38;;;;;;;7.20;2.60;;;10.10;99.90;;;;;;5010488;28;20222;-62
2021/10/23 00:18:05;;;;;;;10.63;3.45;;;10.10;99.90;;;;;;5005791;28;20218;-62
2021/10/23 00:20:32;;;;;;;8.85;2.33;;;10.00;99.90;;;;;;5002048;28;20227;-66
2021/10/23 00:22:59;;;;;;;5.32;2.42;;;10.00;99.90;;;;;;5010846;28;20241;-65
2021/10/23 00:25:26;;;;;;;6.25;2.30;;;10.00;99.90;;;;;;5009886;28;20233;-64
2021/10/23 00:27:55;;;;;;;3.08;1.88;;;10.00;99.90;;;;;;4996464;28;20222;-63
2021/10/23 00:30:23;;;;;;;5.95;3.08;;;10.00;99.90;;;;;;5001178;28;20309;-63
2021/10/23 00:32:50;;;;;;;9.73;2.20;;;9.90;99.90;;;;;;5015696;28;20237;-63
2021/10/23 00:35:18;;;;;;;7.05;2.58;;;9.90;99.90;;;;;;5001668;28;20241;-64
2021/10/23 00:37:45;;;;;;;6.68;2.20;;;9.90;99.90;;;;;;5012108;28;20223;-63
2021/10/23 00:40:12;;;;;;;6.85;2.22;;;9.80;99.90;;;;;;5005471;28;20245;-65
2021/10/23 00:42:39;;;;;;;9.05;2.78;;;9.80;99.90;;;;;;5002694;28;20687;-64
2021/10/23 00:45:09;;;;;;;4.50;2.17;;;9.80;99.90;;;;;;5014204;28;20240;-64
2021/10/23 00:47:36;;;;;;;7.68;4.70;;;9.80;99.90;;;;;;5004119;28;20317;-64
2021/10/23 00:50:03;;;;;;;7.50;2.50;;;9.80;99.90;;;;;;4995485;28;20231;-65
2021/10/23 00:52:31;;;;;;;10.82;2.28;;;9.80;99.90;;;;;;4997268;28;20293;-66
2021/10/23 00:54:58;;;;;;;11.80;3.13;;;9.80;99.90;;;;;;5008701;28;20223;-65
2021/10/23 00:57:25;;;;;;;8.80;2.17;;;9.80;99.90;;;;;;4995399;28;20237;-65
2021/10/23 00:59:52;;;;;;;13.15;6.47;;;9.80;99.90;;;;;;5001034;28;20234;-65
2021/10/23 01:02:20;;;;;;;10.80;4.82;;;9.80;99.90;;;;;;5008125;28;20219;-64
2021/10/23 01:04:47;;;;;;;4.55;1.70;;;9.80;99.90;;;;;;5008752;28;20230;-65
2021/10/23 01:07:15;;;;;;;2.55;2.10;;;9.80;99.90;;;;;;5008356;28;20236;-65
2021/10/23 01:09:42;;;;;;;6.30;2.90;;;9.80;99.90;;;;;;4995141;28;20227;-65
2021/10/23 01:12:10;;;;;;;14.55;2.45;;;9.80;99.90;;;;;;5002509;28;20218;-65
2021/10/23 01:14:38;;;;;;;4.20;2.30;;;9.90;99.90;;;;;;5006823;28;20250;-65
2021/10/23 01:17:08;;;;;;;10.05;3.83;;;9.80;99.90;;;;;;4995492;28;20701;-64
2021/10/23 01:19:36;;;;;;;7.78;2.65;;;9.80;99.90;;;;;;5003605;28;20230;-65
2021/10/23 01:22:06;;;;;;;6.13;2.78;;;9.80;99.90;;;;;;5001527;28;20234;-65
2021/10/23 01:24:33;;;;;;;6.53;2.67;;;9.80;99.90;;;;;;5014431;28;20230;-65
2021/10/23 01:27:00;;;;;;;9.60;2.63;;;9.80;99.90;;;;;;4998408;28;20318;-65
2021/10/23 01:29:27;;;;;;;7.90;3.45;;;9.80;99.90;;;;;;5013277;28;20237;-65
2021/10/23 01:31:55;;;;;;;8.30;2.17;;;9.80;99.90;;;;;;5008259;28;20222;-65
2021/10/23 01:34:24;;;;;;;6.18;3.00;;;9.70;99.90;;;;;;5004263;28;20226;-65
2021/10/23 01:36:53;;;;;;;6.03;2.55;;;9.70;99.90;;;;;;5000975;28;20674;-65
2021/10/23 01:39:22;;;;;;;6.95;2.33;;;9.80;99.90;;;;;;5003548;28;20234;-65
2021/10/23 01:41:49;;;;;;;9.88;3.22;;;9.70;99.90;;;;;;4999306;28;20218;-65
2021/10/23 01:44:18;;;;;;;9.00;3.17;;;9.70;99.90;;;;;;5005461;28;20230;-65
2021/10/23 01:46:46;;;;;;;7.75;2.40;;;9.80;99.90;;;;;;5009700;28;20238;-65
2021/10/23 01:49:13;;;;;;;3.95;2.38;;;9.80;99.90;;;;;;4994970;28;20231;-65
2021/10/23 01:51:40;;;;;;;5.40;1.90;;;9.80;99.90;;;;;;4998721;28;20222;-65
2021/10/23 01:54:10;;;;;;;5.90;2.05;;;9.80;99.90;;;;;;5002964;28;20236;-65
2021/10/23 01:56:40;;;;;;;5.85;2.28;;;9.70;99.90;;;;;;4999653;28;20236;-65
2021/10/23 01:59:08;;;;;;;7.22;3.25;;;9.70;99.90;;;;;;4998870;28;20234;-65
2021/10/23 02:01:35;;;;;;;8.13;2.85;;;9.70;99.90;;;;;;5007348;28;20234;-65
2021/10/23 02:04:02;;;;;;;8.77;2.05;;;9.60;99.90;;;;;;5007556;28;20233;-66
2021/10/23 02:06:29;;;;;;;7.85;2.45;;;9.60;99.90;;;;;;5001082;28;20237;-64
2021/10/23 02:08:56;;;;;;;8.90;3.38;;;9.60;99.90;;;;;;5000941;28;20231;-66
2021/10/23 02:11:23;;;;;;;5.57;3.03;;;9.50;99.90;;;;;;5006589;28;20226;-65
2021/10/23 02:13:51;;;;;;;3.35;2.00;;;9.50;99.90;;;;;;5009871;28;20233;-65
2021/10/23 02:16:18;;;;;;;7.90;3.00;;;9.50;99.90;;;;;;4994397;28;20238;-65
2021/10/23 02:18:46;;;;;;;7.93;2.83;;;9.50;99.90;;;;;;5002916;28;20245;-65
2021/10/23 02:21:13;;;;;;;5.95;2.60;;;9.50;99.90;;;;;;5006632;28;20230;-65
2021/10/23 02:23:40;;;;;;;5.38;2.00;;;9.50;99.90;;;;;;5012212;28;20226;-65
2021/10/23 02:26:07;;;;;;;8.02;2.50;;;9.60;99.90;;;;;;5004569;28;20230;-65
2021/10/23 02:28:34;;;;;;;8.27;3.00;;;9.50;99.90;;;;;;4997203;28;20230;-65
2021/10/23 02:31:03;;;;;;;4.95;2.10;;;9.50;99.90;;;;;;5002037;28;20229;-65
2021/10/23 02:33:30;;;;;;;11.43;2.85;;;9.50;99.90;;;;;;4999319;28;20250;-66
2021/10/23 02:35:57;;;;;;;8.98;3.47;;;9.60;99.90;;;;;;5007335;28;20576;-65
2021/10/23 02:38:24;;;;;;;10.23;2.40;;;9.50;99.90;;;;;;5008346;28;20241;-65
2021/10/23 02:40:51;;;;;;;5.35;2.13;;;9.60;99.90;;;;;;4993399;28;20233;-64
2021/10/23 02:43:18;;;;;;;4.75;1.88;;;9.60;99.90;;;;;;5005477;28;20685;-65
2021/10/23 02:45:45;;;;;;;7.50;2.40;;;9.60;99.90;;;;;;5012718;28;20237;-65
2021/10/23 02:48:13;;;;;;;6.90;2.40;;;9.60;99.90;;;;;;4997024;28;20249;-65
2021/10/23 02:50:40;;;;;;;4.50;2.17;;;9.50;99.90;;;;;;4993172;28;20245;-64
2021/10/23 02:53:08;;;;;;;4.57;3.22;;;9.50;99.90;;;;;;5006483;28;20223;-65
2021/10/23 02:55:35;;;;;;;6.40;2.30;;;9.50;99.90;;;;;;4993106;28;20222;-65
2021/10/23 02:58:03;;;;;;;5.75;2.63;;;9.50;99.90;;;;;;5005907;28;20618;-66
2021/10/23 03:00:30;;;;;;;6.60;3.00;;;9.50;99.90;;;;;;5002385;28;20239;-66
2021/10/23 03:02:57;;;;;;;10.80;2.50;;;9.50;99.90;;;;;;5003933;28;20222;-65
2021/10/23 03:05:25;;;;;;;11.07;3.65;;;9.50;99.90;;;;;;5001619;28;20309;-66
2021/10/23 03:07:52;;;;;;;4.97;2.55;;;9.60;99.90;;;;;;5006049;28;20234;-66
2021/10/23 03:10:19;;;;;;;7.72;2.45;;;9.50;99.90;;;;;;4993204;28;20250;-66
2021/10/23 03:12:46;;;;;;;3.40;2.10;;;9.60;99.90;;;;;;4998889;28;20555;-66
2021/10/23 03:15:13;;;;;;;11.25;3.80;;;9.50;99.90;;;;;;5000435;28;20230;-66
2021/10/23 03:17:40;;;;;;;5.65;2.45;;;9.50;99.90;;;;;;4992932;28;20227;-66
2021/10/23 03:20:08;;;;;;;9.10;2.88;;;9.50;99.90;;;;;;5005259;28;20230;-65
2021/10/23 03:22:37;;;;;;;8.07;3.67;;;9.50;99.90;;;;;;5005948;28;20222;-66
2021/10/23 03:25:04;;;;;;;11.07;4.50;;;9.50;99.90;;;;;;4996888;28;20715;-66
2021/10/23 03:27:31;;;;;;;8.60;2.60;;;9.50;99.90;;;;;;4998460;28;20218;-66
2021/10/23 03:29:58;;;;;;;6.68;2.92;;;9.50;99.90;;;;;;5011421;28;20237;-66
2021/10/23 03:32:25;;;;;;;10.38;2.13;;;9.50;99.90;;;;;;5006923;28;20226;-66
2021/10/23 03:34:54;;;;;;;7.15;2.92;;;9.50;99.90;;;;;;5002123;28;20218;-66
2021/10/23 03:37:21;;;;;;;7.93;2.80;;;9.50;99.90;;;;;;5005108;28;20226;-66
2021/10/23 03:39:49;;;;;;;9.05;3.67;;;9.60;99.90;;;;;;4998928;28;20253;-66
2021/10/23 03:42:16;;;;;;;7.70;3.15;;;9.50;99.90;;;;;;5003250;28;20222;-66
2021/10/23 03:44:43;;;;;;;5.30;3.40;;;9.60;99.90;;;;;;5010599;28;20233;-66
2021/10/23 03:47:11;;;;;;;8.63;1.90;;;9.60;99.90;;;;;;5004101;28;20562;-66
2021/10/23 03:49:41;;;;;;;8.15;2.45;;;9.50;99.90;;;;;;4992375;28;20574;-66
2021/10/23 03:52:07;;;;;;;5.78;2.92;;;9.50;99.90;;;;;;4994850;28;20696;-66
2021/10/23 03:54:34;;;;;;;4.18;2.50;;;9.60;99.90;;;;;;5005692;28;20229;-66
2021/10/23 03:57:04;;;;;;;8.45;3.53;;;9.60;99.90;;;;;;4992535;28;20218;-66
2021/10/23 03:59:31;;;;;;;7.68;2.50;;;9.60;99.90;;;;;;4993771;28;20242;-66
2021/10/23 04:01:58;;;;;;;6.15;2.95;;;9.50;99.90;;;;;;5006848;28;20226;-66
2021/10/23 04:04:26;;;;;;;7.80;4.47;;;9.60;99.90;;;;;;5010913;28;20260;-66
2021/10/23 04:06:53;;;;;;;9.90;2.47;;;9.60;99.90;;;;;;5004039;28;20241;-66
2021/10/23 04:09:20;;;;;;;4.00;1.77;;;9.60;99.90;;;;;;5001523;28;20276;-66
2021/10/23 04:11:47;;;;;;;14.95;5.78;;;9.60;99.90;;;;;;5004718;28;20689;-66
2021/10/23 04:14:15;;;;;;;7.65;1.95;;;9.60;99.90;;;;;;5010609;28;20246;-66
2021/10/23 04:16:42;;;;;;;8.60;4.50;;;9.60;99.90;;;;;;5005009;28;20226;-66
2021/10/23 04:19:09;;;;;;;5.65;2.55;;;9.60;99.90;;;;;;5001281;28;20242;-66
2021/10/23 04:21:36;;;;;;;3.88;1.90;;;9.60;99.90;;;;;;5012001;28;20229;-66
2021/10/23 04:24:03;;;;;;;6.35;2.92;;;9.60;99.90;;;;;;5009766;28;20234;-66
2021/10/23 04:26:30;;;;;;;8.27;3.42;;;9.60;99.90;;;;;;5005350;28;20241;-66
2021/10/23 04:28:57;;;;;;;13.88;3.95;;;9.60;99.90;;;;;;5002329;28;20232;-66
2021/10/23 04:31:25;;;;;;;3.75;1.88;;;9.60;99.90;;;;;;5016201;28;20715;-66
2021/10/23 04:33:52;;;;;;;9.90;2.58;;;9.60;99.90;;;;;;5002136;28;20266;-66
2021/10/23 04:36:19;;;;;;;6.10;2.42;;;9.70;99.90;;;;;;5008960;28;20707;-65
2021/10/23 04:38:46;;;;;;;8.43;3.63;;;9.70;99.90;;;;;;5028906;28;20237;-66
2021/10/23 04:41:13;;;;;;;6.82;4.28;;;9.60;99.90;;;;;;5031246;28;20240;-66
2021/10/23 04:43:40;;;;;;;10.57;2.83;;;9.60;99.90;;;;;;5026024;28;20225;-66
2021/10/23 04:46:08;;;;;;;9.30;3.90;;;9.60;99.90;;;;;;5023176;28;20238;-65
2021/10/23 04:48:36;;;;;;;8.70;3.05;;;9.60;99.90;;;;;;5028778;28;20313;-66
2021/10/23 04:51:03;;;;;;;4.15;2.17;;;9.60;99.90;;;;;;5025931;28;20242;-66
2021/10/23 04:53:30;;;;;;;7.25;2.80;;;9.60;99.90;;;;;;5028918;28;20225;-66
2021/10/23 04:55:57;;;;;;;11.55;3.25;;;9.60;99.90;;;;;;5027814;28;20259;-66
2021/10/23 04:58:24;;;;;;;6.25;2.60;;;9.60;99.90;;;;;;5021808;28;20230;-66
2021/10/23 05:00:51;;;;;;;6.65;2.85;;;9.60;99.90;;;;;;5021927;28;20230;-66
2021/10/23 05:03:18;;;;;;;5.55;2.55;;;9.60;99.90;;;;;;5034353;28;20236;-66
2021/10/23 05:05:46;;;;;;;5.25;2.20;;;9.60;99.90;;;;;;5021828;28;20579;-66
2021/10/23 05:08:13;;;;;;;11.70;4.53;;;9.60;99.90;;;;;;5016885;28;20261;-66
2021/10/23 05:10:40;;;;;;;7.30;3.30;;;9.60;99.90;;;;;;5034172;28;20260;-66
2021/10/23 05:13:07;;;;;;;7.13;2.85;;;9.60;99.90;;;;;;5022005;28;21041;-66
2021/10/23 05:15:34;;;;;;;8.52;5.47;;;9.60;99.90;;;;;;5034606;28;20222;-66
2021/10/23 05:18:01;;;;;;;5.95;3.15;;;9.50;99.90;;;;;;5021656;28;20221;-66
2021/10/23 05:20:28;;;;;;;5.90;3.08;;;9.50;99.90;;;;;;5021622;28;20230;-66
2021/10/23 05:22:57;;;;;;;2.95;2.22;;;9.50;99.90;;;;;;5034354;28;20736;-66
2021/10/23 05:25:24;;;;;;;23.90;6.05;;;9.40;99.90;;;;;;5021164;28;20241;-66
2021/10/23 05:27:51;;;;;;;5.32;2.20;;;9.50;99.90;;;;;;5032213;28;20222;-66
2021/10/23 05:30:18;;;;;;;7.15;2.50;;;9.40;99.90;;;;;;5028922;28;20283;-66
2021/10/23 05:32:45;;;;;;;5.05;2.00;;;9.40;99.90;;;;;;5026807;28;20679;-66
2021/10/23 05:35:12;;;;;;;5.25;3.33;;;9.40;99.90;;;;;;5021302;28;20236;-65
2021/10/23 05:37:39;;;;;;;5.85;3.05;;;9.40;99.90;;;;;;5022182;28;20229;-66
2021/10/23 05:40:08;;;;;;;7.80;3.03;;;9.40;99.90;;;;;;5027462;28;20237;-66
2021/10/23 05:42:36;;;;;;;8.25;3.83;;;9.40;99.90;;;;;;5031234;28;20218;-66
2021/10/23 05:45:03;;;;;;;8.70;4.82;;;9.50;99.90;;;;;;5031289;28;20221;-66
2021/10/23 05:47:30;;;;;;;6.53;4.50;;;9.50;99.90;;;;;;5033796;28;20568;-66
2021/10/23 05:49:57;;;;;;;11.23;4.63;;;9.50;99.90;;;;;;5021513;28;20229;-66
2021/10/23 05:52:24;;;;;;;7.75;3.10;;;9.50;99.90;;;;;;5020875;28;20222;-65
2021/10/23 05:54:51;;;;;;;5.43;2.75;;;9.50;99.90;;;;;;5033870;28;20228;-65
2021/10/23 05:57:19;;;;;;;5.38;2.58;;;9.50;99.90;;;;;;5020776;28;20233;-65
2021/10/23 05:59:46;;;;;;;15.30;5.28;;;9.50;99.90;;;;;;5030110;28;20226;-65
2021/10/23 06:02:24;;;;;;;13.27;3.97;;;9.50;99.90;;;;;;5034109;28;20222;-65
2021/10/23 06:04:51;;;;;;;11.43;3.22;;;9.50;99.90;;;;;;5024548;28;20680;-65
2021/10/23 06:07:19;;;;;;;8.13;2.90;;;9.50;99.90;;;;;;5027279;28;20222;-66
2021/10/23 06:09:46;;;;;;;5.25;2.58;;;9.60;99.90;;;;;;5023644;28;20416;-65
2021/10/23 06:12:13;;;;;;;11.75;4.38;;;9.60;99.90;;;;;;5027130;28;20240;-65
2021/10/23 06:14:42;;;;;;;3.63;1.90;;;9.50;99.90;;;;;;5031486;28;20284;-65
2021/10/23 06:17:09;;;;;;;7.35;2.70;;;9.50;99.90;;;;;;5029830;28;20233;-66
2021/10/23 06:19:37;;;;;;;2.85;2.53;;;9.60;99.90;;;;;;5024235;28;20229;-66
2021/10/23 06:22:07;;;;;;;8.52;2.47;;;9.60;99.90;;;;;;5024525;28;20234;-66
2021/10/23 06:24:35;;;;;;;7.68;2.75;;;9.60;99.90;;;;;;5024214;28;20225;-66
2021/10/23 06:27:02;;;;;;;7.40;2.25;;;9.50;99.90;;;;;;5019750;28;20250;-66
2021/10/23 06:29:30;;;;;;;6.35;2.45;;;9.50;99.90;;;;;;5026212;28;20678;-65
2021/10/23 06:31:58;;;;;;;6.60;3.20;;;9.60;99.90;;;;;;5027290;28;20241;-66
2021/10/23 06:34:25;;;;;;;7.68;2.25;;;9.60;99.90;;;;;;5026069;28;20221;-66
2021/10/23 06:36:52;;;;;;;9.73;3.05;;;9.60;99.90;;;;;;5022223;28;20218;-64
2021/10/23 06:39:19;;;;;;;5.35;2.85;;;9.60;99.90;;;;;;5026575;28;20236;-65
2021/10/23 06:41:46;;;;;;;4.50;2.05;;;9.60;99.90;;;;;;5020142;28;20708;-65
2021/10/23 06:44:13;;;;;;;5.95;2.58;;;9.60;99.90;;;;;;5028771;28;20221;-65
2021/10/23 06:46:41;;;;;;;5.95;2.67;;;9.60;99.90;;;;;;5032082;28;20221;-65
2021/10/23 06:49:10;;;;;;;9.70;2.47;;;9.60;99.90;;;;;;5019427;28;20231;-65
2021/10/23 06:51:38;;;;;;;11.20;2.65;;;9.70;99.90;;;;;;5025229;28;20268;-65
2021/10/23 06:54:06;;;;;;;7.63;3.13;;;9.70;99.90;;;;;;5027726;28;20287;-65
2021/10/23 06:56:33;;;;;;;6.68;2.30;;;9.70;99.90;;;;;;5031278;28;20221;-64
2021/10/23 06:59:00;;;;;;;5.45;2.90;;;9.70;99.90;;;;;;5030255;28;20233;-65
2021/10/23 07:01:27;;;;;;;7.13;3.17;;;9.70;99.90;;;;;;5030711;28;20225;-65
2021/10/23 07:03:55;;;;;;;10.25;3.42;;;9.70;99.90;;;;;;5026614;28;20229;-64
2021/10/23 07:06:23;;;;;;;11.73;4.85;;;9.70;99.90;;;;;;5028109;28;20225;-65
2021/10/23 07:08:50;;;;;;;9.15;3.80;;;9.80;99.90;;;;;;5018884;28;20236;-65
2021/10/23 07:11:17;;;;;;;9.20;3.83;;;9.80;99.90;;;;;;5022083;28;20222;-65
2021/10/23 07:13:44;;;;;;;4.47;2.70;;;9.80;99.90;;;;;;5025584;28;20590;-65
2021/10/23 07:16:11;;;;;;;10.63;3.58;;;9.70;99.90;;;;;;5021934;28;20217;-64
2021/10/23 07:18:38;;;;;;;5.75;2.95;;;9.70;99.90;;;;;;5028356;28;20226;-65
2021/10/23 07:21:05;;;;;;;9.88;4.60;;;9.70;99.90;;;;;;5022305;28;20226;-65
2021/10/23 07:23:34;;;;;;;8.93;4.25;;;9.70;99.90;;;;;;5027979;28;20574;-65
2021/10/23 07:26:01;;;;;;;5.80;3.15;;;9.70;99.90;;;;;;5022324;28;20226;-65
2021/10/23 07:28:28;;;;;;;8.00;2.92;;;9.80;99.90;;;;;;5024150;28;20233;-65
2021/10/23 07:30:55;;;;;;;6.28;2.88;;;9.80;99.90;;;;;;5031649;28;20233;-65
2021/10/23 07:33:22;;;;;;;8.02;3.53;;;9.80;99.90;;;;;;5018341;28;20230;-65
2021/10/23 07:35:49;;;;;;;7.50;2.58;;;9.90;99.90;;;;;;5023502;28;20229;-65
2021/10/23 07:38:16;;;;;;;10.50;2.95;;;9.90;99.90;;;;;;5022785;28;20233;-65
2021/10/23 07:40:44;;;;;;;8.20;2.80;;;9.90;99.90;;;;;;5024041;28;20668;-65
2021/10/23 07:43:12;;;;;;;11.20;2.80;;;10.00;99.90;;;;;;5016552;28;20312;-65
2021/10/23 07:45:39;;;;;;;4.88;2.35;;;10.10;99.90;;;;;;5031642;28;20249;-65
2021/10/23 07:48:06;;;;;;;12.02;2.85;;;10.10;99.90;;;;;;5017726;28;20230;-65
2021/10/23 07:50:33;;;;;;;6.63;2.80;;;10.20;99.90;;;;;;5031647;28;20233;-65
2021/10/23 07:53:02;;;;;;;3.88;2.33;;;10.30;99.90;;;;;;5029050;28;20288;-65
2021/10/23 07:55:31;;;;;;;9.57;2.10;;;10.30;99.90;;;;;;5020800;28;20218;-65
2021/10/23 07:58:00;;;;;;;6.25;2.35;;;10.30;99.90;;;;;;5017897;28;20224;-65
2021/10/23 08:01:20;;;;;;;5.03;2.72;;;10.30;99.90;;;;;;5103146;27;21065;-65
2021/10/23 08:03:47;;;;;;;8.50;3.33;;;10.40;99.90;;;;;;5093085;28;20226;-65
2021/10/23 08:06:14;;;;;;;6.70;2.47;;;10.40;99.90;;;;;;5100631;27;20232;-65
2021/10/23 08:08:41;;;;;;;7.10;2.90;;;10.40;99.90;;;;;;5112227;27;20220;-65
2021/10/23 08:11:08;;;;;;;4.85;3.00;;;10.50;99.90;;;;;;5098092;27;20701;-65
2021/10/23 08:13:35;;;;;;;6.68;2.70;;;10.50;99.90;;;;;;5105716;27;20228;-66
2021/10/23 08:16:03;;;;;;;9.52;2.85;;;10.60;99.90;;;;;;5111434;27;20684;-65
2021/10/23 08:18:32;;;;;;;9.93;3.20;;;10.70;99.90;;;;;;5116372;27;20225;-64
2021/10/23 08:21:00;;;;;;;8.43;2.47;;;10.70;99.90;;;;;;5122732;27;20277;-66
2021/10/23 08:23:28;;;;;;;5.55;3.10;;;10.80;99.90;;;;;;5124356;27;20241;-66
2021/10/23 08:25:56;;;;;;;9.20;2.45;;;10.80;99.90;;;;;;5122769;27;20225;-65
2021/10/23 08:28:23;;;;;;;11.00;4.13;;;10.90;99.90;;;;;;5124380;27;20218;-65
2021/10/23 08:30:50;;;;;;;7.43;3.17;;;10.90;99.90;;;;;;5118025;27;20235;-65
2021/10/23 08:33:18;;;;;;;6.95;2.58;;;10.90;99.90;;;;;;5116171;27;20222;-65
2021/10/23 08:35:46;;;;;;;10.77;3.97;;;10.90;99.90;;;;;;5122207;27;20228;-66
2021/10/23 08:38:13;;;;;;;9.43;3.75;;;11.00;99.90;;;;;;5124745;27;20231;-66
2021/10/23 08:40:40;;;;;;;8.88;5.13;;;11.00;99.90;;;;;;5121362;27;20308;-66
2021/10/23 08:43:08;;;;;;;8.35;3.08;;;11.00;99.90;;;;;;5123317;27;20228;-66
2021/10/23 08:45:37;;;;;;;8.68;3.58;;;11.10;99.90;;;;;;5119598;27;20232;-65
2021/10/23 08:48:06;;;;;;;6.10;3.38;;;11.10;99.90;;;;;;5116054;27;20236;-65
2021/10/23 08:50:33;;;;;;;9.25;3.80;;;11.20;99.90;;;;;;5119647;27;20659;-65
2021/10/23 08:53:02;;;;;;;8.10;3.20;;;11.20;99.90;;;;;;5129879;27;20288;-65
2021/10/23 08:55:30;;;;;;;4.93;2.65;;;11.30;99.90;;;;;;5118767;27;20217;-66
2021/10/23 08:57:57;;;;;;;6.80;2.63;;;11.30;99.90;;;;;;5123197;27;20698;-66
2021/10/23 09:00:24;;;;;;;8.23;3.67;;;11.30;99.90;;;;;;5113252;27;21007;-65
2021/10/23 09:02:51;;;;;;;5.55;2.95;;;11.30;99.90;;;;;;5109327;27;20222;-65
2021/10/23 09:05:19;;;;;;;11.18;4.05;;;11.40;99.90;;;;;;5095173;27;20292;-66
2021/10/23 09:07:47;;;;;;;5.50;2.40;;;11.40;99.90;;;;;;5101537;27;20233;-65
2021/10/23 09:10:23;;;;;;;18.48;8.80;;;11.50;99.90;;;;;;5101839;27;20240;-65
2021/10/23 09:13:01;;;;;;;7.15;3.88;;;11.50;99.90;;;;;;5083959;28;20219;-65
2021/10/23 09:15:33;;;;;;;8.85;2.95;;;11.60;99.90;;;;;;5080682;28;20245;-66
2021/10/23 09:18:00;;;;;;;6.07;2.63;;;11.60;99.90;;;;;;5087067;28;20563;-65
2021/10/23 09:20:27;;;;;;;7.72;2.75;;;11.70;99.90;;;;;;5089680;28;20235;-65
2021/10/23 09:22:54;;;;;;;10.13;3.05;;;11.80;99.90;;;;;;5087276;28;20221;-65
2021/10/23 09:25:25;;;;;;;11.27;3.00;;;11.70;99.90;;;;;;5089106;28;20224;-66
2021/10/23 09:27:55;;;;;;;5.72;2.85;;;11.70;99.70;;;;;;5088288;28;20580;-65
2021/10/23 09:30:30;;;;;;;8.18;3.35;;;11.70;99.80;;;;;;5081420;28;20662;-65
2021/10/23 09:32:59;;;;;;;7.20;3.28;;;11.70;99.80;;;;;;5081498;28;20219;-65
2021/10/23 09:35:26;;;;;;;7.22;2.60;;;11.70;99.80;;;;;;5086695;28;20309;-65
2021/10/23 09:37:56;;;;;;;10.32;4.00;;;11.70;99.80;;;;;;5088388;28;20230;-66
2021/10/23 09:40:26;;;;;;;5.45;3.63;;;11.80;99.90;;;;;;5083203;28;20231;-66
2021/10/23 09:43:17;;;;;;;9.70;4.47;;;11.80;99.90;;;;;;5094805;28;20222;-65
2021/10/23 09:46:08;;;;;;;11.13;4.15;;;11.90;99.90;;;;;;5096204;27;20225;-65
2021/10/23 09:48:37;;;;;;;7.85;3.83;;;12.00;99.90;;;;;;5093534;27;20222;-65
2021/10/23 09:51:16;;;;;;;12.65;4.40;;;12.00;99.90;;;;;;5098103;28;20230;-65
2021/10/23 09:53:45;;;;;;;6.55;2.88;;;12.10;99.90;;;;;;5085540;28;20316;-65
2021/10/23 09:56:16;;;;;;;8.98;3.25;;;12.10;99.90;;;;;;5088287;28;20239;-65
2021/10/23 09:58:53;;;;;;;13.52;5.18;;;12.20;99.60;;;;;;5086570;28;20665;-65
2021/10/23 10:01:21;;;;;;;9.82;5.15;;;12.20;99.90;;;;;;5101096;27;20684;-66
2021/10/23 10:03:48;;;;;;;10.77;5.38;;;12.30;99.90;;;;;;5114524;27;20222;-65
2021/10/23 10:06:15;;;;;;;11.52;5.78;;;12.30;99.70;;;;;;5106564;27;20219;-65
2021/10/23 10:08:42;;;;;;;12.02;6.65;;;12.40;99.70;;;;;;5105643;27;20231;-65
2021/10/23 10:11:14;;;;;;;8.23;5.18;;;12.40;99.70;;;;;;5109490;27;20227;-66
2021/10/23 10:13:42;;;;;;;7.35;3.58;;;12.50;99.80;;;;;;5088809;28;20237;-64
2021/10/23 10:16:11;;;;;;;13.32;4.13;;;12.50;99.20;;;;;;5092953;28;20220;-66
2021/10/23 10:18:41;;;;;;;7.72;3.90;;;12.50;99.20;;;;;;5090431;28;20223;-66
2021/10/23 10:21:11;;;;;;;13.20;4.57;;;12.60;99.30;;;;;;5097913;27;20227;-66
2021/10/23 10:23:40;;;;;;;7.97;3.75;;;12.70;99.70;;;;;;5107110;27;20222;-65
2021/10/23 10:26:28;;;;;;;8.07;3.53;;;12.70;99.40;;;;;;5090910;28;20590;-65
2021/10/23 10:29:27;;;;;;;10.57;3.50;;;12.80;99.30;;;;;;5072637;28;20232;-65
2021/10/23 10:31:59;;;;;;;9.25;4.10;;;12.80;98.90;;;;;;5072262;28;20223;-65
2021/10/23 10:42:42;;;;;;;12.48;4.57;;;12.70;97.50;;;;;;5081082;28;20284;-65
2021/10/23 10:44:11;;;;;;;10.23;4.00;;;12.70;97.60;;;;;;5089916;28;20258;-65
2021/10/23 10:47:17;;;;;;;12.23;2.70;;;12.70;97.70;;;;;;5093398;28;20219;-66
2021/10/23 10:49:55;;;;;;;9.25;3.00;;;12.70;97.40;;;;;;5090755;28;20230;-66
2021/10/23 10:53:05;;;;;;;6.05;2.55;;;12.70;97.30;;;;;;5093810;28;20223;-66
2021/10/23 10:55:41;;;;;;;9.90;3.90;;;12.70;97.50;;;;;;5093528;28;20790;-66
2021/10/23 10:58:10;;;;;;;10.13;3.75;;;12.70;97.30;;;;;;5087596;28;20228;-66
2021/10/23 11:01:22;;;;;;;4.50;2.70;;;12.60;97.40;;;;;;5081084;28;20243;-66
2021/10/23 11:04:03;;;;;;;8.82;4.07;;;12.70;97.30;;;;;;5090914;28;20215;-66
2021/10/23 11:07:03;;;;;;;8.93;4.88;;;12.70;97.40;;;;;;5092329;28;20219;-66
2021/10/23 11:09:46;;;;;;;8.18;2.97;;;12.80;97.40;;;;;;5092866;28;20237;-66
2021/10/23 11:12:20;;;;;;;5.07;2.20;;;12.90;97.10;;;;;;5093633;28;20592;-66
2021/10/23 11:14:46;;;;;;;7.22;2.75;;;12.90;97.20;;;;;;5092977;28;20239;-66
2021/10/23 11:17:20;;;;;;;8.02;2.90;;;13.00;97.30;;;;;;5093236;28;20246;-66
2021/10/23 11:19:49;;;;;;;14.07;2.88;;;12.90;97.00;;;;;;5092826;28;20219;-65
2021/10/23 11:22:17;;;;;;;8.02;2.65;;;13.00;97.20;;;;;;5090449;28;20564;-64
2021/10/23 11:24:47;;;;;;;5.88;3.75;;;13.00;97.10;;;;;;5074257;28;20234;-65
2021/10/23 11:27:35;;;;;;;5.72;3.90;;;13.10;97.10;;;;;;5093124;28;20230;-65
2021/10/23 11:30:11;;;;;;;6.40;2.50;;;13.10;97.20;;;;;;5093556;28;20657;-66
2021/10/23 11:32:42;;;;;;;6.72;3.72;;;13.20;97.10;;;;;;5092697;28;20215;-65
2021/10/23 11:35:10;;;;;;;6.32;2.88;;;13.20;97.00;;;;;;5092893;28;20223;-65
2021/10/23 11:37:37;;;;;;;6.80;3.10;;;13.30;97.10;;;;;;5092642;28;20230;-66
2021/10/23 11:40:06;;;;;;;8.60;3.80;;;13.30;96.50;;;;;;5092877;28;20222;-65
2021/10/23 11:42:37;;;;;;;8.48;2.75;;;13.30;96.50;;;;;;5095104;28;20226;-65
2021/10/23 11:45:12;;;;;;;8.60;2.55;;;13.30;96.50;;;;;;5113302;27;20218;-65
2021/10/23 11:47:41;;;;;;;4.03;2.40;;;13.30;96.60;;;;;;5112977;27;20247;-65
2021/10/23 11:50:17;;;;;;;5.72;3.53;;;13.40;96.60;;;;;;5113145;27;20476;-64
2021/10/23 11:52:52;;;;;;;11.15;3.83;;;13.40;96.50;;;;;;5113044;27;20545;-65
2021/10/23 11:55:35;;;;;;;12.00;6.47;;;13.40;96.50;;;;;;5112980;27;20568;-65
2021/10/23 11:58:04;;;;;;;12.07;4.90;;;13.40;96.60;;;;;;5112996;27;20226;-66
2021/10/23 12:00:32;;;;;;;11.02;3.90;;;13.50;96.70;;;;;;5112940;27;20233;-64
2021/10/23 12:03:03;;;;;;;4.70;2.80;;;13.50;96.00;;;;;;5113152;27;20222;-64
2021/10/23 12:05:41;;;;;;;7.68;2.85;;;13.50;95.80;;;;;;5112923;27;20214;-64
2021/10/23 12:08:20;;;;;;;4.13;2.10;;;13.50;95.10;;;;;;5112613;27;20230;-65
2021/10/23 12:11:17;;;;;;;3.20;2.40;;;13.50;94.90;;;;;;5113079;27;20229;-65
2021/10/23 12:13:51;;;;;;;6.95;2.40;;;13.50;94.40;;;;;;5101163;28;20232;-65
2021/10/23 12:16:28;;;;;;;4.75;2.10;;;13.40;94.40;;;;;;5104354;27;20241;-65
2021/10/23 12:19:04;;;;;;;10.02;2.30;;;13.40;94.30;;;;;;5112588;27;20221;-65
2021/10/23 12:21:37;;;;;;;7.82;2.72;;;13.30;94.30;;;;;;5112912;27;20688;-65
2021/10/23 12:24:18;;;;;;;4.15;2.75;;;13.30;94.40;;;;;;5112369;27;20226;-65
2021/10/23 12:27:04;;;;;;;9.63;3.65;;;13.30;94.50;;;;;;5112742;27;20214;-65
2021/10/23 12:29:39;;;;;;;9.18;3.00;;;13.30;94.70;;;;;;5092767;28;20584;-65
2021/10/23 12:32:08;;;;;;;4.10;2.30;;;13.30;94.50;;;;;;5092312;28;20645;-65
2021/10/23 12:34:59;;;;;;;7.05;4.40;;;13.40;94.80;;;;;;5092619;28;20485;-65
2021/10/23 12:37:44;;;;;;;11.25;3.22;;;13.40;94.90;;;;;;5092409;28;20211;-65
2021/10/23 12:40:15;;;;;;;9.05;3.47;;;13.40;95.00;;;;;;5091386;28;20254;-65
2021/10/23 12:42:43;;;;;;;6.05;2.65;;;13.40;95.10;;;;;;5094730;28;20530;-66
2021/10/23 12:45:12;;;;;;;8.05;3.50;;;13.40;95.00;;;;;;5112667;27;20684;-66
2021/10/23 12:47:39;;;;;;;5.75;2.85;;;13.40;95.00;;;;;;5115431;27;20347;-65
2021/10/23 12:50:09;;;;;;;7.72;3.40;;;13.50;95.20;;;;;;5108598;27;20231;-66
2021/10/23 12:52:38;;;;;;;8.45;2.63;;;13.50;94.70;;;;;;5077053;28;20224;-65
2021/10/23 12:55:06;;;;;;;8.30;2.72;;;13.50;94.70;;;;;;5090146;28;20569;-66
2021/10/23 12:57:33;;;;;;;8.10;2.38;;;13.60;94.80;;;;;;5077310;28;20223;-66
2021/10/23 13:00:00;;;;;;;6.20;2.72;;;13.60;94.40;;;;;;5075395;28;20228;-66
2021/10/23 13:02:27;;;;;;;6.53;3.30;;;13.60;94.40;;;;;;5094158;28;20234;-66
2021/10/23 13:04:54;;;;;;;8.73;2.78;;;13.60;94.10;;;;;;5095982;28;20227;-64
2021/10/23 13:07:22;;;;;;;6.35;2.90;;;13.60;93.80;;;;;;5095469;28;20230;-65
2021/10/23 13:09:49;;;;;;;6.20;2.35;;;13.60;93.80;;;;;;5095563;28;21023;-65